Time;durP1;ratioP1;P1;durP2;ratioP2;P2;SDS_P1;SDS_P2;PMS_P1;PMS_P2;Temp;Humidity;BMP_temperature;BMP_pressure;BME280_temperature;BME280_humidity;BME280_pressure;Samples;Min_cycle;Max_cycle;Signal;HPM_P1;HPM_P2
2022/05/24 00:00:16;;;;;;;7.30;4.80;;;;;;;15.24;100.00;156350.72;4860197;29;20049;-76
2022/05/24 00:02:42;;;;;;;7.85;4.88;;;;;;;15.18;100.00;156336.56;4854535;29;20040;-75
2022/05/24 00:05:14;;;;;;;7.50;4.70;;;;;;;15.15;100.00;156328.81;4865128;29;20040;-77
2022/05/24 00:07:40;;;;;;;7.72;4.78;;;;;;;15.17;100.00;156333.97;4864082;29;20120;-75
2022/05/24 00:10:09;;;;;;;10.60;4.70;;;;;;;15.16;100.00;156331.41;4870083;29;20491;-74
2022/05/24 00:12:34;;;;;;;7.55;4.90;;;;;;;15.12;100.00;156319.81;4862006;29;20061;-76
2022/05/24 00:17:47;;;;;;;10.07;4.85;;;;;;;15.29;100.00;156362.28;4871753;29;20105;-76
2022/05/24 00:20:13;;;;;;;5.40;4.80;;;;;;;15.22;100.00;156344.25;4868657;29;20033;-77
2022/05/24 00:22:39;;;;;;;9.27;5.65;;;;;;;15.22;100.00;156344.25;4882223;29;20053;-74
2022/05/24 00:25:05;;;;;;;9.10;5.45;;;;;;;15.10;100.00;156315.94;4862940;29;20153;-75
2022/05/24 00:27:30;;;;;;;10.85;5.95;;;;;;;15.14;100.00;156324.97;4883946;29;20566;-77
2022/05/24 00:29:56;;;;;;;10.13;5.45;;;;;;;15.04;100.00;156299.25;4870520;29;20057;-74
2022/05/24 00:32:23;;;;;;;11.73;5.75;;;;;;;15.01;100.00;156291.50;4871827;29;20037;-76
2022/05/24 00:34:49;;;;;;;12.10;6.10;;;;;;;14.97;100.00;156282.50;4847148;29;20081;-75
2022/05/24 00:37:19;;;;;;;9.57;5.35;;;;;;;14.86;100.00;156254.19;4880819;29;20044;-75
2022/05/24 00:39:46;;;;;;;11.23;5.75;;;;;;;14.82;100.00;156245.19;4881937;29;20085;-76
2022/05/24 00:42:24;;;;;;;10.55;6.43;;;;;;;14.73;100.00;156223.34;4893378;29;20045;-76
2022/05/24 00:45:01;;;;;;;8.73;6.75;;;;;;;14.73;100.00;156223.34;4891208;29;20033;-77
2022/05/24 00:47:56;;;;;;;10.68;6.65;;;;;;;14.75;100.00;156228.50;4910035;29;20052;-78
2022/05/24 00:50:30;;;;;;;11.52;6.82;;;;;;;14.66;100.00;156205.34;4864786;29;20093;-77
2022/05/24 00:53:06;;;;;;;9.25;7.28;;;;;;;14.63;100.00;156197.59;4904391;29;20032;-76
2022/05/24 00:55:42;;;;;;;9.05;7.22;;;;;;;14.56;100.00;156180.88;4883827;29;20036;-75
2022/05/24 00:58:23;;;;;;;11.02;7.63;;;;;;;14.51;100.00;156168.00;4871815;29;20040;-76
2022/05/24 01:00:49;;;;;;;13.35;7.97;;;;;;;14.57;100.00;156183.47;4859162;29;20065;-76
2022/05/24 01:03:16;;;;;;;11.48;8.40;;;;;;;14.58;100.00;156186.06;4849319;29;20045;-76
2022/05/24 01:05:43;;;;;;;9.88;7.63;;;;;;;14.54;100.00;156174.41;4869629;29;20105;-75
2022/05/24 01:08:10;;;;;;;15.20;8.30;;;;;;;14.51;100.00;156166.72;4873713;29;20030;-75
2022/05/24 01:10:44;;;;;;;12.23;8.10;;;;;;;14.52;100.00;156169.25;4876836;29;20396;-78
2022/05/24 01:13:17;;;;;;;12.68;9.32;;;;;;;14.56;100.00;156180.88;4868662;29;20040;-74
2022/05/24 01:15:48;;;;;;;15.60;9.20;;;;;;;14.56;100.00;156179.53;4880038;29;20037;-75
2022/05/24 01:18:14;;;;;;;12.63;8.82;;;;;;;14.56;100.00;156179.53;4875379;29;20116;-75
2022/05/24 01:20:44;;;;;;;11.43;8.90;;;;;;;14.59;100.00;156188.59;4883717;29;20040;-75
2022/05/24 01:23:37;;;;;;;10.70;7.93;;;;;;;14.66;100.00;156205.34;4867117;29;20037;-77
2022/05/24 01:26:05;;;;;;;;;;;;;;;14.66;100.00;156204.06;4885824;29;20041;-76
2022/05/24 01:28:40;;;;;;;11.43;8.77;;;;;;;14.68;100.00;156209.22;4867341;29;19924;-78
2022/05/24 01:31:08;;;;;;;11.00;8.55;;;;;;;14.64;100.00;156200.19;4872140;29;20038;-78
2022/05/24 01:36:23;;;;;;;10.57;8.27;;;;;;;14.73;100.00;156222.03;4871403;29;20040;-77
2022/05/24 01:38:52;;;;;;;13.50;8.48;;;;;;;14.77;100.00;156232.38;4854962;29;20055;-78
2022/05/24 01:41:30;;;;;;;16.55;9.32;;;;;;;14.73;100.00;156223.34;4873031;29;20587;-77
2022/05/24 01:43:57;;;;;;;10.70;9.60;;;;;;;14.76;100.00;156231.03;4866454;29;20687;-77
2022/05/24 01:46:33;;;;;;;17.63;10.23;;;;;;;14.75;100.00;156228.50;4870639;29;20029;-77
2022/05/24 01:49:08;;;;;;;16.48;11.32;;;;;;;14.81;100.00;156241.38;4871053;29;20124;-77
2022/05/24 01:51:50;;;;;;;14.77;11.77;;;;;;;14.84;100.00;156249.06;4871109;29;20053;-77
2022/05/24 01:54:17;;;;;;;15.35;11.93;;;;;;;14.84;100.00;156250.34;4857635;29;20036;-78
2022/05/24 01:56:52;;;;;;;14.38;11.13;;;;;;;14.94;100.00;156274.81;4858982;29;20041;-78
2022/05/24 01:59:19;;;;;;;8.30;5.40;;;;;;;14.87;100.00;156258.06;4857280;29;20061;-79
2022/05/24 02:01:54;;;;;;;10.80;4.70;;;;;;;14.68;100.00;156210.47;4879022;29;20824;-79
2022/05/24 02:04:22;;;;;;;7.00;4.78;;;;;;;14.53;100.00;156173.13;4861092;29;20036;-76
2022/05/24 02:07:23;;;;;;;7.43;5.03;;;;;;;14.49;100.00;156162.84;4877791;29;20053;-77
2022/05/24 02:09:51;;;;;;;12.60;5.85;;;;;;;14.39;100.00;156137.09;4853129;29;20077;-76
2022/05/24 02:12:23;;;;;;;8.23;5.22;;;;;;;14.33;100.00;156122.97;4875258;29;20491;-76
2022/05/24 02:15:04;;;;;;;6.95;5.40;;;;;;;14.21;100.00;156092.13;4855776;29;20112;-77
2022/05/24 02:17:44;;;;;;;5.97;5.32;;;;;;;14.23;100.00;156096.00;4853706;29;20580;-77
2022/05/24 02:20:13;;;;;;;6.60;5.30;;;;;;;14.21;100.00;156093.41;4872378;29;20541;-78
2022/05/24 02:22:40;;;;;;;10.40;6.30;;;;;;;14.12;100.00;156068.97;4874627;29;20073;-77
2022/05/24 02:25:25;;;;;;;10.10;7.65;;;;;;;13.97;100.00;156032.94;4860629;29;20033;-79
2022/05/24 02:27:51;;;;;;;10.43;7.70;;;;;;;14.04;100.00;156049.69;4860556;29;20684;-78
2022/05/24 02:30:23;;;;;;;10.05;9.05;;;;;;;14.01;100.00;156041.97;4875449;29;20302;-77
2022/05/24 02:32:48;;;;;;;15.57;9.90;;;;;;;14.07;100.00;156056.09;4848603;29;20048;-76
2022/05/24 02:35:14;;;;;;;10.15;9.10;;;;;;;14.07;100.00;156056.09;4852275;29;20040;-76
2022/05/24 02:37:40;;;;;;;11.75;9.80;;;;;;;13.96;100.00;156029.13;4858622;29;20409;-78
2022/05/24 02:42:53;;;;;;;15.57;10.30;;;;;;;13.94;100.00;156025.28;4873360;29;20037;-78
2022/05/24 02:45:19;;;;;;;13.93;9.68;;;;;;;13.95;100.00;156027.81;4870226;29;20064;-76
2022/05/24 02:47:45;;;;;;;13.13;9.15;;;;;;;13.95;100.00;156027.81;4870162;29;20044;-78
2022/05/24 02:50:11;;;;;;;13.10;9.63;;;;;;;13.92;100.00;156020.13;4854330;29;20524;-78
2022/05/24 02:52:40;;;;;;;15.13;10.50;;;;;;;13.99;100.00;156038.13;4855137;29;20041;-79
2022/05/24 02:55:08;;;;;;;17.05;10.15;;;;;;;14.01;100.00;156041.97;4850744;29;20056;-77
2022/05/24 02:57:34;;;;;;;15.23;10.63;;;;;;;13.99;100.00;156038.13;4857402;29;20116;-77
2022/05/24 03:00:00;;;;;;;17.08;11.68;;;;;;;13.89;100.00;156012.41;4857355;29;20044;-76
2022/05/24 03:02:26;;;;;;;17.50;12.85;;;;;;;13.86;100.00;156003.41;4867349;29;20069;-77
2022/05/24 03:04:51;;;;;;;18.45;13.98;;;;;;;13.83;100.00;155998.25;4851549;29;20452;-77
2022/05/24 03:10:02;;;;;;;17.55;14.07;;;;;;;13.74;100.00;155973.84;4875379;29;20041;-77
2022/05/24 03:15:13;;;;;;;17.17;14.15;;;;;;;13.67;100.00;155955.84;4864517;29;20108;-77
2022/05/24 03:17:39;;;;;;;23.10;14.52;;;;;;;13.67;100.00;155955.84;4865095;29;20563;-78
2022/05/24 03:20:06;;;;;;;20.85;14.65;;;;;;;13.69;100.00;155962.25;4872134;29;20036;-76
2022/05/24 03:22:31;;;;;;;21.13;14.40;;;;;;;13.62;100.00;155944.28;4848943;29;20692;-77
2022/05/24 03:24:57;;;;;;;21.63;14.63;;;;;;;13.54;100.00;155925.03;4861847;29;20132;-78
2022/05/24 03:27:23;;;;;;;19.40;12.88;;;;;;;13.55;100.00;155927.56;4858166;29;20048;-78
2022/05/24 03:29:49;;;;;;;20.88;13.27;;;;;;;13.53;100.00;155921.16;4858773;29;20041;-78
2022/05/24 03:32:17;;;;;;;22.13;13.07;;;;;;;13.44;100.00;155900.56;4870702;29;20045;-78
2022/05/24 03:34:43;;;;;;;24.08;14.05;;;;;;;13.51;100.00;155917.28;4848511;29;20040;-79
2022/05/24 03:37:09;;;;;;;20.38;12.65;;;;;;;13.51;100.00;155917.28;4852510;29;20159;-79
2022/05/24 03:39:35;;;;;;;19.85;12.30;;;;;;;13.44;100.00;155900.56;4861364;29;20131;-78
2022/05/24 03:42:02;;;;;;;17.40;12.60;;;;;;;13.49;100.00;155910.88;4847606;29;21309;-77
2022/05/24 03:44:28;;;;;;;15.73;11.90;;;;;;;13.43;100.00;155896.75;4878364;29;20034;-77
2022/05/24 03:46:54;;;;;;;16.98;12.20;;;;;;;13.42;100.00;155894.16;4868367;29;20409;-79
2022/05/24 03:49:21;;;;;;;15.25;12.90;;;;;;;13.38;100.00;155883.88;4856093;29;20137;-79
2022/05/24 03:51:46;;;;;;;22.67;12.82;;;;;;;13.53;100.00;155922.44;4859619;29;20052;-77
2022/05/24 03:54:15;;;;;;;18.05;12.40;;;;;;;13.47;100.00;155905.69;4891363;29;20033;-78
2022/05/24 03:59:27;;;;;;;13.77;9.80;;;;;;;13.47;100.00;155907.00;4874464;29;20633;-79
2022/05/24 04:01:53;;;;;;;16.80;10.27;;;;;;;13.43;100.00;155896.75;4867203;29;20038;-79
2022/05/24 04:04:18;;;;;;;13.32;10.00;;;;;;;13.43;100.00;155896.75;4864655;29;20488;-78
2022/05/24 04:06:44;;;;;;;13.60;9.32;;;;;;;13.44;100.00;155900.56;4864849;29;20037;-78
2022/05/24 04:09:09;;;;;;;11.38;9.15;;;;;;;13.52;100.00;155918.56;4882104;29;20034;-79
2022/05/24 04:11:35;;;;;;;13.63;8.93;;;;;;;13.51;100.00;155916.03;4877153;29;20041;-78
2022/05/24 04:14:01;;;;;;;15.45;8.63;;;;;;;13.46;100.00;155904.44;4870845;29;20037;-79
2022/05/24 04:16:27;;;;;;;9.90;7.70;;;;;;;13.31;100.00;155867.16;4875453;29;20464;-79
2022/05/24 04:18:53;;;;;;;11.52;8.60;;;;;;;13.37;100.00;155881.28;4874531;29;20131;-78
2022/05/24 04:21:18;;;;;;;15.20;8.20;;;;;;;13.32;100.00;155869.75;4875363;29;20041;-77
2022/05/24 04:23:44;;;;;;;11.45;8.10;;;;;;;13.49;100.00;155912.16;4848675;29;20037;-79
2022/05/24 04:26:10;;;;;;;14.45;8.43;;;;;;;13.40;100.00;155890.28;4871697;29;20045;-79
2022/05/24 04:28:35;;;;;;;13.23;8.50;;;;;;;13.40;100.00;155889.00;4872306;29;20036;-78
2022/05/24 04:31:02;;;;;;;12.82;8.50;;;;;;;13.39;100.00;155886.41;4865140;29;20047;-77
2022/05/24 04:33:28;;;;;;;16.25;8.73;;;;;;;13.45;100.00;155901.88;4858277;29;20121;-77
2022/05/24 04:35:56;;;;;;;13.10;8.60;;;;;;;13.43;100.00;155896.75;4865004;29;20029;-78
2022/05/24 04:38:23;;;;;;;14.18;9.48;;;;;;;13.40;100.00;155890.28;4858669;29;20041;-79
2022/05/24 04:43:36;;;;;;;11.73;8.20;;;;;;;13.32;100.00;155868.47;4868857;29;20049;-78
2022/05/24 04:46:03;;;;;;;11.73;7.80;;;;;;;13.36;100.00;155880.00;4877377;29;20079;-78
2022/05/24 04:48:30;;;;;;;14.07;7.70;;;;;;;13.29;100.00;155860.69;4877278;29;20441;-79
2022/05/24 04:50:57;;;;;;;11.32;7.30;;;;;;;13.37;100.00;155881.28;4870707;29;20079;-79
2022/05/24 04:53:25;;;;;;;9.85;7.85;;;;;;;13.31;100.00;155865.88;4865093;29;20090;-79
2022/05/24 04:55:52;;;;;;;13.55;8.40;;;;;;;13.28;100.00;155859.41;4865981;29;20054;-78
2022/05/24 04:58:18;;;;;;;14.25;8.18;;;;;;;13.35;100.00;155877.41;4888702;29;20036;-77
2022/05/24 05:00:46;;;;;;;9.65;7.75;;;;;;;13.25;100.00;155852.97;4862705;29;20036;-77
2022/05/24 05:03:14;;;;;;;10.90;7.97;;;;;;;13.41;100.00;155891.56;4858689;29;20511;-77
2022/05/24 05:05:40;;;;;;;11.60;8.05;;;;;;;13.44;100.00;155899.28;4885804;29;20056;-78
2022/05/24 05:08:07;;;;;;;14.05;7.50;;;;;;;13.33;100.00;155872.28;4871867;29;20037;-78
2022/05/24 05:10:34;;;;;;;9.90;7.10;;;;;;;13.36;100.00;155880.00;4864904;29;20033;-78
2022/05/24 05:13:01;;;;;;;9.10;7.13;;;;;;;13.31;100.00;155865.88;4876746;29;20048;-77
2022/05/24 05:15:27;;;;;;;9.43;6.63;;;;;;;13.36;100.00;155880.00;4878757;29;20456;-77
2022/05/24 05:18:14;;;;;;;9.02;6.95;;;;;;;13.33;100.00;155871.00;4857954;29;20139;-76
2022/05/24 05:20:41;;;;;;;9.45;6.78;;;;;;;13.35;100.00;155877.41;4874750;29;20873;-78
2022/05/24 05:23:11;;;;;;;11.63;7.22;;;;;;;13.33;100.00;155871.00;4859625;29;20036;-77
2022/05/24 05:25:39;;;;;;;11.65;6.60;;;;;;;13.27;100.00;155855.56;4854654;29;20045;-79
2022/05/24 05:28:04;;;;;;;11.73;7.05;;;;;;;13.32;100.00;155869.75;4849877;29;20109;-77
2022/05/24 05:33:15;;;;;;;12.05;6.43;;;;;;;13.36;100.00;155878.75;4856893;29;20079;-78
2022/05/24 05:35:43;;;;;;;7.30;5.00;;;;;;;13.59;100.00;155936.56;4871312;29;20116;-77
2022/05/24 05:38:09;;;;;;;6.63;4.90;;;;;;;13.86;100.00;156003.41;4874735;29;20090;-77
2022/05/24 05:40:35;;;;;;;7.28;5.25;;;;;;;14.01;100.00;156043.28;4867453;29;20052;-77
2022/05/24 05:43:01;;;;;;;8.23;4.78;;;;;;;14.13;100.00;156071.56;4870734;29;20044;-77
2022/05/24 05:45:27;;;;;;;9.85;5.32;;;;;;;14.27;100.00;156106.28;4866758;29;20045;-78
2022/05/24 05:47:53;;;;;;;8.98;4.88;;;;;;;14.39;100.00;156137.09;4860905;29;20037;-79
2022/05/24 05:50:22;;;;;;;7.78;5.13;;;;;;;14.42;100.00;156144.84;4873398;29;20038;-78
2022/05/24 05:52:50;;;;;;;6.75;4.63;;;;;;;14.57;100.00;156182.19;4863761;29;20047;-76
2022/05/24 05:55:16;;;;;;;6.90;4.57;;;;;;;14.70;100.00;156214.34;4840617;29;20045;-77
2022/05/24 05:57:41;;;;;;;10.60;4.53;;;;;;;14.65;100.00;156201.47;4855652;29;20041;-77
2022/05/24 06:00:08;;;;;;;9.80;4.70;;;;;;;14.59;100.00;156187.31;4856947;29;20559;-77
2022/05/24 06:02:43;;;;;;;11.07;5.10;;;;;;;14.76;100.00;156231.03;4851966;29;20077;-77
2022/05/24 06:05:10;;;;;;;12.50;5.63;;;;;;;14.82;100.00;156245.19;4849779;29;20041;-78
2022/05/24 06:07:36;;;;;;;6.88;6.18;;;;;;;14.83;100.00;156246.50;4868628;29;20042;-77
2022/05/24 06:10:03;;;;;;;10.05;6.60;;;;;;;14.74;100.00;156225.91;4857509;29;20029;-77
2022/05/24 06:12:29;;;;;;;10.52;6.28;;;;;;;14.78;100.00;156234.91;4867003;29;20587;-79
2022/05/24 06:14:54;;;;;;;8.07;6.30;;;;;;;14.86;100.00;156255.53;4860382;29;20039;-76
2022/05/24 06:17:21;;;;;;;7.50;5.90;;;;;;;14.94;100.00;156274.81;4853420;29;20113;-76
2022/05/24 06:19:47;;;;;;;10.43;6.00;;;;;;;15.07;100.00;156306.94;4874726;29;20510;-76
2022/05/24 06:22:13;;;;;;;7.43;5.80;;;;;;;15.21;100.00;156341.72;4863434;29;20033;-76
2022/05/24 06:24:38;;;;;;;8.10;5.10;;;;;;;15.34;100.00;156375.16;4869963;29;20180;-76
2022/05/24 06:27:05;;;;;;;9.82;5.85;;;;;;;15.35;100.00;156377.69;4858441;29;20592;-76
2022/05/24 06:29:32;;;;;;;12.43;5.15;;;;;;;15.46;100.00;156406.00;4890513;29;20037;-78
2022/05/24 06:31:59;;;;;;;8.82;5.28;;;;;;;15.58;100.00;156436.91;4868270;29;20388;-77
2022/05/24 06:34:24;;;;;;;6.85;4.53;;;;;;;15.61;100.00;156443.34;4871295;29;20045;-78
2022/05/24 06:36:50;;;;;;;10.07;4.47;;;;;;;15.54;100.00;156425.34;4871667;29;20080;-76
2022/05/24 06:39:16;;;;;;;6.07;4.15;;;;;;;15.44;100.00;156400.88;4857503;29;20029;-78
2022/05/24 06:41:41;;;;;;;5.53;4.13;;;;;;;15.41;100.00;156393.19;4865697;29;20790;-76
2022/05/24 06:44:07;;;;;;;4.65;4.10;;;;;;;15.57;100.00;156434.31;4872732;29;20116;-77
2022/05/24 06:46:33;;;;;;;6.40;4.40;;;;;;;15.63;100.00;156447.19;4878676;29;20048;-78
2022/05/24 06:48:59;;;;;;;8.52;4.30;;;;;;;15.69;100.00;156463.94;4867394;29;20045;-75
2022/05/24 06:51:25;;;;;;;7.40;4.35;;;;;;;15.81;100.00;156493.59;4868914;29;20048;-77
2022/05/24 06:53:51;;;;;;;6.25;4.75;;;;;;;15.86;100.00;156505.16;4846606;29;20037;-76
2022/05/24 06:56:17;;;;;;;8.90;5.05;;;;;;;15.83;100.00;156498.72;4859431;29;20033;-77
2022/05/24 06:58:44;;;;;;;7.60;5.78;;;;;;;15.96;100.00;156532.19;4864437;29;20057;-77
2022/05/24 07:03:56;;;;;;;6.88;5.55;;;;;;;16.49;100.00;156664.78;4871178;29;20029;-77
2022/05/24 07:06:24;;;;;;;10.93;6.00;;;;;;;16.47;100.00;156659.66;4874827;29;20175;-78
2022/05/24 07:08:50;;;;;;;8.77;5.82;;;;;;;16.31;100.00;156619.75;4843756;29;20547;-78
2022/05/24 07:11:18;;;;;;;12.95;6.60;;;;;;;16.27;100.00;156609.41;4859689;29;20065;-79
2022/05/24 07:13:44;;;;;;;8.63;6.50;;;;;;;16.23;100.00;156597.84;4871482;29;20036;-78
2022/05/24 07:16:10;;;;;;;8.07;5.68;;;;;;;16.29;100.00;156613.28;4866037;29;20049;-77
2022/05/24 07:18:36;;;;;;;10.43;6.30;;;;;;;16.25;100.00;156603.00;4874987;29;20043;-78
2022/05/24 07:21:04;;;;;;;13.60;6.18;;;;;;;16.33;100.00;156624.91;4870660;29;20097;-79
2022/05/24 07:23:37;;;;;;;7.35;5.90;;;;;;;16.45;100.00;156654.50;4876150;29;20037;-76
2022/05/24 07:26:09;;;;;;;7.45;5.68;;;;;;;16.50;100.00;156666.06;4853391;29;20500;-77
2022/05/24 07:28:36;;;;;;;;;;;;;;;16.71;100.00;156720.16;4861534;29;20708;-79
2022/05/24 07:31:03;;;;;;;8.82;6.10;;;;;;;16.88;100.00;156761.44;4858431;29;19919;-78
2022/05/24 07:33:28;;;;;;;9.80;5.88;;;;;;;17.03;100.00;156800.06;4874364;29;20078;-77
2022/05/24 07:35:54;;;;;;;7.00;6.05;;;;;;;16.99;100.00;156788.47;4884529;29;20038;-76
2022/05/24 07:38:19;;;;;;;7.80;6.28;;;;;;;16.83;100.00;156749.81;4845450;29;20033;-79
2022/05/24 07:46:15;;;;;;;6.93;6.22;;;;;;;16.88;100.00;156762.72;4870411;29;20374;-77
2022/05/24 07:48:41;;;;;;;8.68;7.03;;;;;;;16.88;100.00;156762.72;4857237;29;20501;-77
2022/05/24 07:51:06;;;;;;;9.07;6.38;;;;;;;16.89;100.00;156764.00;4852969;29;20045;-77
2022/05/24 07:53:32;;;;;;;9.88;6.93;;;;;;;17.14;100.00;156827.13;4854571;29;20081;-77
2022/05/24 07:55:59;;;;;;;9.30;6.80;;;;;;;17.06;100.00;156807.78;4867382;29;20036;-77
2022/05/24 07:58:26;;;;;;;9.65;7.15;;;;;;;16.97;100.00;156783.31;4867484;29;20122;-78
2022/05/24 08:00:54;;;;;;;10.48;7.35;;;;;;;16.87;100.00;156758.84;4869869;29;20037;-78
2022/05/24 08:03:20;;;;;;;10.80;7.57;;;;;;;16.88;100.00;156762.72;4867003;29;20028;-78
2022/05/24 08:05:46;;;;;;;13.02;7.97;;;;;;;17.11;100.00;156819.38;4868859;29;20427;-79
2022/05/24 08:08:11;;;;;;;9.50;7.45;;;;;;;17.25;100.00;156855.47;4871885;29;20060;-77
2022/05/24 08:10:39;;;;;;;12.68;7.32;;;;;;;17.33;100.00;156874.78;4872554;29;20037;-77
2022/05/24 08:13:09;;;;;;;8.82;6.80;;;;;;;17.32;99.29;156872.19;4869717;29;20044;-77
2022/05/24 08:15:35;;;;;;;10.95;7.47;;;;;;;17.53;100.00;156925.00;4893858;29;20108;-78
2022/05/24 08:18:01;;;;;;;9.07;7.32;;;;;;;17.92;99.01;157021.72;4877106;29;20028;-78
2022/05/24 08:20:29;;;;;;;11.98;7.00;;;;;;;18.11;100.00;157069.38;4873348;29;20133;-77
2022/05/24 08:22:56;;;;;;;9.10;6.88;;;;;;;18.17;96.96;157084.84;4843094;29;20089;-76
2022/05/24 08:25:21;;;;;;;11.60;7.43;;;;;;;17.93;95.59;157024.25;4872217;29;20156;-76
2022/05/24 08:27:47;;;;;;;11.50;7.38;;;;;;;17.64;96.63;156953.34;4871316;29;20127;-78
2022/05/24 08:30:15;;;;;;;10.27;6.70;;;;;;;17.76;98.44;156982.97;4891169;29;20076;-78
2022/05/24 08:32:41;;;;;;;10.43;6.72;;;;;;;17.83;97.07;157001.00;4860947;29;20044;-77
2022/05/24 08:35:10;;;;;;;8.40;6.78;;;;;;;17.85;98.42;157006.22;4878482;29;20045;-79
2022/05/24 08:37:36;;;;;;;10.55;7.32;;;;;;;17.95;95.93;157029.41;4892844;29;20831;-78
2022/05/24 08:40:02;;;;;;;9.77;7.07;;;;;;;17.75;94.07;156980.41;4860883;29;20021;-76
2022/05/24 08:42:54;;;;;;;10.82;7.63;;;;;;;17.55;94.58;156928.88;4854430;29;20038;-77
2022/05/24 08:48:29;;;;;;;8.05;6.20;;;;;;;18.46;95.66;157159.59;4871581;29;20041;-75
2022/05/24 08:51:22;;;;;;;8.18;6.63;;;;;;;19.05;93.76;157307.91;4874514;29;20048;-76
2022/05/24 08:53:50;;;;;;;8.65;6.10;;;;;;;19.16;91.10;157333.72;4862734;29;20049;-75
2022/05/24 08:56:24;;;;;;;10.27;5.95;;;;;;;18.91;88.95;157270.50;4875723;29;20183;-77
2022/05/24 08:58:56;;;;;;;6.65;5.50;;;;;;;18.62;89.61;157198.28;4889717;29;20071;-79
2022/05/24 09:01:32;;;;;;;6.93;5.72;;;;;;;18.20;92.67;157093.88;4884493;29;20037;-74
2022/05/24 09:04:10;;;;;;;8.30;5.57;;;;;;;18.00;95.63;157043.59;4858649;29;20044;-78
2022/05/24 09:06:53;;;;;;;5.88;5.22;;;;;;;18.02;94.00;157047.47;4868147;29;20056;-77
2022/05/24 09:09:50;;;;;;;6.45;5.30;;;;;;;18.20;90.99;157092.59;4872151;29;20041;-78
2022/05/24 09:12:28;;;;;;;7.43;4.80;;;;;;;18.22;91.12;157097.75;4865938;29;20051;-77
2022/05/24 09:15:07;;;;;;;6.15;4.60;;;;;;;18.24;91.15;157102.91;4867233;29;20029;-77
2022/05/24 09:18:08;;;;;;;8.07;5.13;;;;;;;18.99;90.04;157292.44;4861459;29;20443;-75
2022/05/24 09:20:40;;;;;;;5.75;4.68;;;;;;;19.45;86.77;157407.19;4856401;29;20049;-76
2022/05/24 09:23:29;;;;;;;6.25;5.18;;;;;;;19.49;84.61;157417.50;4874590;29;20061;-77
2022/05/24 09:26:00;;;;;;;8.00;4.97;;;;;;;19.35;86.50;157381.44;4866076;29;20068;-75
2022/05/24 09:28:46;;;;;;;7.00;4.55;;;;;;;19.14;87.54;157329.84;4887346;29;20096;-76
2022/05/24 09:31:17;;;;;;;6.95;4.43;;;;;;;18.76;88.37;157234.38;4849598;29;20060;-76
2022/05/24 09:33:44;;;;;;;10.07;4.90;;;;;;;18.57;91.23;157185.38;4868980;29;20431;-77
2022/05/24 09:36:09;;;;;;;12.32;4.70;;;;;;;18.44;95.11;157154.47;4860766;29;20764;-75
2022/05/24 09:38:39;;;;;;;5.40;4.57;;;;;;;18.50;86.48;157168.63;4872965;29;20061;-76
2022/05/24 09:41:15;;;;;;;9.73;4.93;;;;;;;18.63;88.45;157200.88;4860732;29;20037;-76
2022/05/24 09:43:41;;;;;;;9.00;4.90;;;;;;;18.69;84.95;157216.31;4873191;29;20033;-78
2022/05/24 09:46:12;;;;;;;9.07;5.53;;;;;;;18.82;83.61;157249.88;4890730;29;20037;-75
2022/05/24 09:48:53;;;;;;;6.55;4.95;;;;;;;18.92;86.49;157274.38;4883384;29;20037;-76
2022/05/24 09:51:30;;;;;;;10.33;5.63;;;;;;;18.94;88.01;157279.53;4853071;29;20033;-76
2022/05/24 09:53:56;;;;;;;7.00;4.78;;;;;;;18.85;86.71;157256.31;4857890;29;20036;-78
2022/05/24 09:56:29;;;;;;;9.05;5.80;;;;;;;18.79;88.13;157240.81;4857335;29;20047;-77
2022/05/24 09:58:58;;;;;;;7.93;5.53;;;;;;;18.71;87.39;157220.19;4870839;29;20045;-76
2022/05/24 10:01:40;;;;;;;9.93;5.40;;;;;;;18.37;85.11;157135.13;4858540;29;20048;-77
2022/05/24 10:04:16;;;;;;;10.73;5.53;;;;;;;18.04;88.55;157052.63;4873448;29;20060;-75
2022/05/24 10:06:51;;;;;;;9.25;6.45;;;;;;;17.62;91.09;156948.19;4875097;29;20057;-76
2022/05/24 10:09:20;;;;;;;11.15;5.78;;;;;;;17.23;91.34;156849.00;4858927;29;20036;-75
2022/05/24 10:11:55;;;;;;;11.88;5.82;;;;;;;16.86;92.49;156757.56;4866120;29;20040;-77
2022/05/24 10:14:40;;;;;;;8.30;5.60;;;;;;;16.73;92.29;156725.31;4857740;29;20033;-76
2022/05/24 10:17:20;;;;;;;8.32;5.53;;;;;;;16.70;92.92;156717.56;4863327;29;20105;-77
2022/05/24 10:20:02;;;;;;;6.78;5.30;;;;;;;16.71;95.51;156720.16;4866215;29;20154;-75
2022/05/24 10:23:04;;;;;;;11.32;4.88;;;;;;;16.44;96.24;156650.63;4856196;29;20404;-77
2022/05/24 10:25:49;;;;;;;7.10;5.05;;;;;;;16.33;98.23;156623.56;4864329;29;20116;-79
2022/05/24 10:28:37;;;;;;;8.15;6.32;;;;;;;16.28;97.13;156610.75;4860926;29;20036;-78
2022/05/24 10:31:27;;;;;;;9.77;5.97;;;;;;;16.35;100.00;156630.03;4893144;29;20077;-78
2022/05/24 10:39:46;;;;;;;16.15;8.10;;;;;;;16.07;100.00;156559.25;4876766;29;20445;-79
2022/05/24 10:42:17;;;;;;;11.77;7.82;;;;;;;16.05;100.00;156554.09;4859517;29;20037;-79
2022/05/24 10:44:47;;;;;;;13.00;8.40;;;;;;;16.17;100.00;156583.69;4866212;29;20060;-77
2022/05/24 10:47:50;;;;;;;15.60;8.82;;;;;;;16.22;100.00;156596.56;4861340;29;20029;-77
2022/05/24 10:50:33;;;;;;;15.18;9.05;;;;;;;16.06;100.00;156556.66;4824087;29;20142;-76
2022/05/24 10:53:11;;;;;;;13.40;9.13;;;;;;;16.00;100.00;156541.22;4860688;29;20048;-77
2022/05/24 10:55:45;;;;;;;13.48;9.35;;;;;;;15.87;100.00;156507.75;4884703;29;20044;-78
2022/05/24 10:58:15;;;;;;;15.45;8.30;;;;;;;15.84;100.00;156500.00;4856310;29;20045;-77
2022/05/24 11:00:48;;;;;;;13.38;9.23;;;;;;;15.76;100.00;156482.03;4867408;29;20046;-79
2022/05/24 11:03:19;;;;;;;12.55;8.65;;;;;;;15.73;100.00;156474.28;4859665;29;20123;-80
2022/05/24 11:05:52;;;;;;;10.43;7.80;;;;;;;15.59;100.00;156438.19;4838362;29;20045;-78
2022/05/24 11:08:31;;;;;;;12.32;8.02;;;;;;;15.43;100.00;156397.03;4857611;29;20579;-78
2022/05/24 11:11:20;;;;;;;11.57;7.43;;;;;;;15.29;100.00;156363.53;4861708;29;20486;-77
2022/05/24 11:14:06;;;;;;;9.98;6.30;;;;;;;14.99;100.00;156288.97;4857513;29;20095;-78
2022/05/24 11:16:38;;;;;;;8.77;5.55;;;;;;;14.80;100.00;156240.06;4847500;29;20041;-77
2022/05/24 11:19:10;;;;;;;9.27;3.67;;;;;;;14.63;100.00;156197.59;4869909;29;20128;-78
2022/05/24 11:21:41;;;;;;;6.25;3.80;;;;;;;14.59;100.00;156188.59;4846743;29;20033;-79
2022/05/24 11:24:15;;;;;;;8.18;4.13;;;;;;;14.62;100.00;156193.75;4845430;29;20108;-79
2022/05/24 11:26:50;;;;;;;7.78;3.80;;;;;;;14.68;100.00;156209.22;4861714;29;20097;-80
2022/05/24 11:29:26;;;;;;;7.10;3.75;;;;;;;14.67;100.00;156207.88;4876676;29;20571;-81
2022/05/24 11:32:02;;;;;;;9.55;4.25;;;;;;;14.71;100.00;156216.91;4872819;29;20539;-79
2022/05/24 11:34:35;;;;;;;7.60;3.55;;;;;;;14.73;100.00;156222.03;4870901;29;20109;-77
2022/05/24 11:37:19;;;;;;;7.32;3.63;;;;;;;14.78;100.00;156234.91;4863165;29;20036;-78
2022/05/24 11:39:46;;;;;;;6.38;3.60;;;;;;;14.79;100.00;156237.50;4858064;29;20098;-78
2022/05/24 11:42:34;;;;;;;5.47;2.70;;;;;;;14.96;100.00;156279.97;4881402;29;20252;-78
2022/05/24 11:45:28;;;;;;;6.80;3.30;;;;;;;15.23;100.00;156346.84;4875612;29;20527;-79
2022/05/24 11:47:54;;;;;;;6.00;3.10;;;;;;;15.42;100.00;156395.72;4854028;29;20041;-78
2022/05/24 11:50:31;;;;;;;5.15;2.33;;;;;;;15.69;100.00;156463.94;4848070;29;20123;-77
2022/05/24 11:53:26;;;;;;;6.90;3.10;;;;;;;15.84;100.00;156500.00;4875285;29;20032;-78
2022/05/24 11:55:55;;;;;;;4.40;3.10;;;;;;;15.98;100.00;156534.78;4845578;29;20041;-78
2022/05/24 11:58:21;;;;;;;7.40;2.95;;;;;;;15.95;100.00;156529.66;4867484;29;20503;-80
2022/05/24 12:01:14;;;;;;;11.82;3.78;;;;;;;15.87;100.00;156509.03;4855826;29;20128;-78
2022/05/24 12:09:55;;;;;;;8.63;4.10;;;;;;;17.22;95.75;156846.44;4867694;29;20072;-78
2022/05/24 12:12:53;;;;;;;8.03;3.63;;;;;;;17.93;92.30;157024.25;4868353;29;20037;-77
2022/05/24 12:15:31;;;;;;;8.60;3.53;;;;;;;17.77;93.56;156984.28;4840669;29;20127;-77